createdAt,value
2019-02-07T00:00:36.520Z,23.07
2019-02-07T00:03:05.597Z,22.23
2019-02-07T00:05:34.321Z,24.43
2019-02-07T00:08:02.888Z,23.63
2019-02-07T00:10:31.563Z,22.47
2019-02-07T00:13:00.130Z,22.90
2019-02-07T00:15:28.735Z,22.40
2019-02-07T00:17:57.368Z,22.70
2019-02-07T00:20:25.961Z,28.53
2019-02-07T00:22:54.598Z,25.80
2019-02-07T00:25:23.927Z,26.43
2019-02-07T00:27:53.024Z,23.13
2019-02-07T00:30:22.565Z,26.50
2019-02-07T00:32:51.366Z,23.77
2019-02-07T00:35:19.970Z,25.77
2019-02-07T00:37:48.581Z,29.93
2019-02-07T00:40:18.906Z,28.00
2019-02-07T00:42:47.815Z,29.13
2019-02-07T00:45:19.959Z,27.03
2019-02-07T00:47:49.228Z,29.27
2019-02-07T00:50:18.776Z,30.47
2019-02-07T00:52:47.415Z,26.10
2019-02-07T00:55:18.103Z,22.97
2019-02-07T00:57:46.880Z,30.43
2019-02-07T01:00:24.331Z,25.43
2019-02-07T01:02:53.538Z,34.27
2019-02-07T01:05:23.355Z,29.70
2019-02-07T01:07:52.644Z,29.53
2019-02-07T01:10:29.151Z,28.27
2019-02-07T01:12:58.143Z,23.90
2019-02-07T01:15:28.435Z,28.17
2019-02-07T01:17:57.246Z,28.00
2019-02-07T01:20:26.079Z,24.90
2019-02-07T01:22:55.183Z,30.33
2019-02-07T01:25:24.831Z,30.27
2019-02-07T01:27:53.731Z,29.30
2019-02-07T01:30:24.167Z,29.57
2019-02-07T01:32:53.178Z,29.70
2019-02-07T01:35:21.829Z,27.63
2019-02-07T01:37:50.935Z,29.23
2019-02-07T01:40:20.667Z,29.00
2019-02-07T01:42:49.302Z,28.03
2019-02-07T01:45:21.048Z,33.63
2019-02-07T01:47:50.825Z,30.30
2019-02-07T01:50:26.541Z,31.03
2019-02-07T01:52:55.211Z,30.70
2019-02-07T01:55:23.857Z,36.57
2019-02-07T01:57:52.571Z,33.47
2019-02-07T02:00:21.503Z,29.50
2019-02-07T02:02:50.135Z,31.27
2019-02-07T02:05:21.775Z,33.33
2019-02-07T02:07:51.383Z,30.73
2019-02-07T02:10:22.594Z,33.20
2019-02-07T02:12:51.501Z,30.43
2019-02-07T02:15:24.536Z,34.40
2019-02-07T02:17:52.386Z,30.30
2019-02-07T02:20:24.358Z,30.27
2019-02-07T02:22:54.667Z,35.17
2019-02-07T02:25:23.604Z,32.23
2019-02-07T02:27:52.399Z,35.97
2019-02-07T02:30:32.707Z,35.23
2019-02-07T02:33:02.007Z,37.87
2019-02-07T02:35:30.686Z,33.33
2019-02-07T02:37:59.319Z,37.10
2019-02-07T02:40:28.093Z,41.43
2019-02-07T02:42:57.500Z,34.67
2019-02-07T02:45:37.105Z,33.33
2019-02-07T02:47:56.983Z,37.73
2019-02-07T02:50:25.847Z,39.70
2019-02-07T02:52:54.575Z,42.60
2019-02-07T02:55:27.651Z,34.03
2019-02-07T02:57:56.351Z,39.87
2019-02-07T03:00:43.001Z,34.93
2019-02-07T03:03:29.312Z,32.47
2019-02-07T03:06:02.227Z,30.03
2019-02-07T03:08:44.195Z,32.60
2019-02-07T03:11:17.423Z,30.63
2019-02-07T03:13:53.415Z,30.53
2019-02-07T03:16:26.332Z,31.30
2019-02-07T03:18:56.531Z,27.87
2019-02-07T03:21:26.764Z,27.23
2019-02-07T03:24:13.447Z,29.30
2019-02-07T03:26:46.562Z,25.73
2019-02-07T03:29:16.764Z,30.53
2019-02-07T03:31:49.976Z,30.53
2019-02-07T03:34:36.667Z,37.97
2019-02-07T03:37:06.900Z,32.93
2019-02-07T03:39:39.911Z,36.77
2019-02-07T03:42:26.815Z,35.63
2019-02-07T03:44:57.015Z,38.50
2019-02-07T03:47:27.253Z,41.67
2019-02-07T03:49:57.653Z,48.40
2019-02-07T03:52:27.896Z,39.90
2019-02-07T03:54:58.113Z,35.47
2019-02-07T03:57:28.434Z,47.87
2019-02-07T04:00:10.607Z,39.87
2019-02-07T04:02:47.001Z,34.57
2019-02-07T04:05:26.493Z,40.50
2019-02-07T04:07:56.738Z,41.37
2019-02-07T04:10:29.791Z,42.57
2019-02-07T04:13:16.572Z,48.13
2019-02-07T04:15:49.819Z,41.87
2019-02-07T04:18:20.031Z,47.67
2019-02-07T04:20:50.347Z,46.33
2019-02-07T04:23:32.511Z,42.83
2019-02-07T04:26:08.711Z,37.23
2019-02-07T04:28:38.926Z,35.27
2019-02-07T04:31:21.572Z,38.00
2019-02-07T04:33:51.795Z,37.97
2019-02-07T04:36:31.045Z,36.47
2019-02-07T04:39:13.509Z,39.70
2019-02-07T04:41:43.751Z,31.83
2019-02-07T04:44:14.100Z,29.47
2019-02-07T04:46:53.378Z,34.80
2019-02-07T04:49:29.367Z,37.30
2019-02-07T04:52:12.130Z,29.07
2019-02-07T04:54:48.523Z,29.70
2019-02-07T04:57:30.783Z,35.20
2019-02-07T05:00:03.899Z,37.13
2019-02-07T05:02:42.993Z,39.23
2019-02-07T05:05:19.321Z,40.93
2019-02-07T05:07:49.637Z,40.30
2019-02-07T05:10:20.147Z,41.40
2019-02-07T05:12:53.311Z,35.70
2019-02-07T05:15:26.148Z,38.77
2019-02-07T05:18:08.652Z,36.73
2019-02-07T05:20:42.074Z,36.30
2019-02-07T05:23:12.306Z,30.93
2019-02-07T05:25:48.174Z,35.50
2019-02-07T05:28:30.690Z,32.67
2019-02-07T05:31:10.075Z,36.10
2019-02-07T05:33:49.110Z,32.67
2019-02-07T05:36:28.229Z,29.07
2019-02-07T05:39:07.527Z,34.90
2019-02-07T05:41:52.667Z,26.17
2019-02-07T05:44:37.734Z,33.40
2019-02-07T05:47:10.901Z,22.93
2019-02-07T05:49:57.345Z,28.50
2019-02-07T05:52:30.571Z,30.27
2019-02-07T05:55:19.167Z,29.67
2019-02-07T05:58:07.596Z,31.93
2019-02-07T06:00:46.899Z,26.70
2019-02-07T06:03:28.726Z,25.03
2019-02-07T06:06:14.001Z,29.07
2019-02-07T06:08:46.961Z,30.20
2019-02-07T06:11:17.399Z,30.43
2019-02-07T06:13:59.655Z,37.37
2019-02-07T06:16:41.609Z,34.47
2019-02-07T06:19:17.587Z,26.37
2019-02-07T06:21:56.382Z,28.70
2019-02-07T06:24:32.617Z,25.60
2019-02-07T06:27:02.815Z,27.00
2019-02-07T06:29:33.043Z,29.33
2019-02-07T06:32:09.094Z,30.67
2019-02-07T06:34:48.596Z,16.53
2019-02-07T06:37:31.127Z,18.50
2019-02-07T06:40:01.342Z,24.73
2019-02-07T06:42:40.890Z,22.60
2019-02-07T06:45:22.116Z,25.60
2019-02-07T06:47:52.355Z,21.10
2019-02-07T06:50:28.332Z,20.87
2019-02-07T06:53:01.726Z,19.90
2019-02-07T06:55:47.983Z,27.17
2019-02-07T06:58:25.059Z,22.17
2019-02-07T07:01:01.357Z,24.83
2019-02-07T07:03:49.603Z,22.30
2019-02-07T07:06:36.430Z,21.80
2019-02-07T07:09:17.990Z,23.13
2019-02-07T07:11:50.220Z,24.43
2019-02-07T07:14:20.727Z,22.53
2019-02-07T07:16:50.932Z,22.27
2019-02-07T07:19:29.718Z,21.10
2019-02-07T07:22:15.229Z,22.57
2019-02-07T07:24:54.363Z,24.47
2019-02-07T07:27:33.602Z,22.27
2019-02-07T07:30:19.965Z,20.50
2019-02-07T07:32:50.165Z,18.97
2019-02-07T07:35:36.457Z,21.67
2019-02-07T07:38:12.437Z,20.73
2019-02-07T07:40:42.983Z,21.70
2019-02-07T07:43:30.467Z,20.50
2019-02-07T07:46:00.881Z,19.50
2019-02-07T07:48:33.857Z,26.43
2019-02-07T07:51:09.855Z,24.37
2019-02-07T07:53:52.198Z,19.37
2019-02-07T07:56:31.160Z,20.43
2019-02-07T07:59:10.464Z,25.47
2019-02-07T08:01:49.770Z,20.40
2019-02-07T08:04:36.402Z,17.27
2019-02-07T08:07:09.928Z,17.43
2019-02-07T08:09:58.330Z,15.67
2019-02-07T08:12:34.536Z,17.27
2019-02-07T08:15:09.466Z,18.30
2019-02-07T08:17:51.829Z,18.10
2019-02-07T08:20:30.967Z,17.00
2019-02-07T08:23:01.191Z,16.57
2019-02-07T08:25:43.488Z,20.30
2019-02-07T08:28:13.748Z,17.90
2019-02-07T08:33:47.762Z,16.73
2019-02-07T08:36:20.906Z,18.87
2019-02-07T08:39:00.448Z,18.37
2019-02-07T08:41:33.986Z,18.70
2019-02-07T08:44:07.230Z,18.90
2019-02-07T08:46:40.175Z,17.93
2019-02-07T08:49:25.406Z,16.70
2019-02-07T08:51:55.599Z,17.47
2019-02-07T08:54:34.321Z,17.33
2019-02-07T08:57:19.601Z,16.57
2019-02-07T08:59:59.075Z,22.00
2019-02-07T09:02:37.760Z,18.97
2019-02-07T09:05:24.390Z,17.10
2019-02-07T09:08:00.661Z,24.07
2019-02-07T09:10:37.102Z,17.87
2019-02-07T09:13:16.246Z,19.40
2019-02-07T09:16:02.828Z,18.07
2019-02-07T09:18:39.086Z,19.70
2019-02-07T09:23:57.116Z,19.90
2019-02-07T09:26:43.922Z,22.83
2019-02-07T09:29:25.910Z,20.40
2019-02-07T09:31:56.446Z,21.57
2019-02-07T09:34:44.670Z,21.23
2019-02-07T09:37:20.898Z,20.33
2019-02-07T09:39:51.162Z,21.50
2019-02-07T09:42:21.362Z,20.63
2019-02-07T09:45:09.850Z,20.20
2019-02-07T09:47:43.042Z,18.87
2019-02-07T09:50:31.688Z,17.87
2019-02-07T09:53:24.079Z,18.67
2019-02-07T09:58:43.006Z,24.70
2019-02-07T10:01:18.958Z,22.93
2019-02-07T10:03:51.791Z,20.27
2019-02-07T10:06:31.510Z,19.13
2019-02-07T10:09:07.698Z,18.07
2019-02-07T10:11:41.024Z,21.37
2019-02-07T10:14:27.366Z,23.80
2019-02-07T10:17:03.646Z,21.93
2019-02-07T10:19:39.922Z,22.50
2019-02-07T10:22:12.862Z,23.07
2019-02-07T10:24:59.438Z,23.60
2019-02-07T10:27:47.642Z,24.47
2019-02-07T10:30:24.470Z,23.43
2019-02-07T10:33:03.650Z,23.43
2019-02-07T10:35:50.086Z,25.83
2019-02-07T10:38:23.398Z,25.97
2019-02-07T10:40:56.802Z,23.40
2019-02-07T10:43:45.154Z,28.60
2019-02-07T10:46:31.434Z,26.70
2019-02-07T10:49:01.633Z,23.13
2019-02-07T10:51:34.353Z,23.23
2019-02-07T10:54:19.946Z,26.47
2019-02-07T10:57:02.129Z,24.03
2019-02-07T10:59:48.386Z,25.93
2019-02-07T11:02:33.914Z,18.80
2019-02-07T11:05:15.854Z,18.70
2019-02-07T11:07:54.666Z,19.50
2019-02-07T11:10:30.686Z,20.87
2019-02-07T11:13:03.571Z,21.27
2019-02-07T11:15:45.912Z,19.37
2019-02-07T11:18:16.132Z,23.43
2019-02-07T11:20:49.330Z,23.60
2019-02-07T11:23:28.913Z,22.17
2019-02-07T11:25:59.230Z,20.67
2019-02-07T11:28:35.256Z,25.07
2019-02-07T11:31:05.497Z,22.70
2019-02-07T11:33:36.182Z,21.40
2019-02-07T11:36:24.740Z,19.20
2019-02-07T11:38:57.646Z,23.17
2019-02-07T11:41:39.854Z,22.90
2019-02-07T11:44:15.801Z,24.63
2019-02-07T11:46:49.032Z,19.60
2019-02-07T11:49:22.030Z,20.67
2019-02-07T11:51:52.578Z,20.23
2019-02-07T11:54:31.388Z,21.87
2019-02-07T11:57:17.994Z,19.60
2019-02-07T11:59:48.193Z,20.80
2019-02-07T12:02:18.430Z,22.37
2019-02-07T12:05:08.025Z,20.50
2019-02-07T12:07:41.008Z,26.40
2019-02-07T12:10:29.663Z,22.90
2019-02-07T12:12:59.899Z,24.10
2019-02-07T12:15:33.062Z,30.10
2019-02-07T12:18:06.102Z,23.07
2019-02-07T12:20:45.590Z,22.43
2019-02-07T12:23:32.074Z,22.07
2019-02-07T12:26:02.342Z,22.40
2019-02-07T12:28:44.631Z,20.47
2019-02-07T12:31:14.827Z,20.63
2019-02-07T12:34:00.362Z,26.27
2019-02-07T12:36:34.231Z,25.27
2019-02-07T12:39:05.782Z,24.40
2019-02-07T12:41:45.122Z,26.27
2019-02-07T12:44:21.290Z,19.63
2019-02-07T12:47:08.297Z,22.33
2019-02-07T12:49:55.130Z,22.43
2019-02-07T12:52:30.899Z,23.37
2019-02-07T12:55:20.000Z,21.57
2019-02-07T12:57:55.982Z,23.63
2019-02-07T13:00:41.556Z,23.93
2019-02-07T13:03:24.034Z,24.77
2019-02-07T13:05:54.270Z,27.17
2019-02-07T13:08:33.620Z,24.97
2019-02-07T13:11:16.005Z,26.20
2019-02-07T13:13:55.222Z,23.80
2019-02-07T13:16:41.713Z,26.10
2019-02-07T13:19:17.454Z,27.20
2019-02-07T13:21:47.729Z,27.03
2019-02-07T13:24:27.154Z,27.60
2019-02-07T13:26:57.416Z,22.87
2019-02-07T13:29:44.064Z,23.23
2019-02-07T13:32:16.860Z,28.80
2019-02-07T13:34:56.339Z,24.37
2019-02-07T13:37:35.526Z,27.20
2019-02-07T13:40:08.434Z,26.10
2019-02-07T13:42:41.710Z,25.10
2019-02-07T13:45:17.527Z,26.10
2019-02-07T13:47:47.758Z,24.70
2019-02-07T13:50:32.521Z,26.30
2019-02-07T13:53:02.046Z,23.97
2019-02-07T13:55:44.286Z,26.27
2019-02-07T13:58:23.073Z,25.07
2019-02-07T14:01:05.191Z,23.93
2019-02-07T14:03:35.428Z,24.97
2019-02-07T14:06:21.306Z,25.93
2019-02-07T14:08:54.554Z,25.43
2019-02-07T14:11:27.673Z,27.53
2019-02-07T14:14:00.632Z,21.43
2019-02-07T14:16:30.902Z,21.53
2019-02-07T14:19:17.603Z,22.97
2019-02-07T14:22:02.975Z,21.27
2019-02-07T14:24:35.750Z,25.30
2019-02-07T14:27:22.408Z,21.93
2019-02-07T14:29:52.732Z,24.47
2019-02-07T14:32:25.698Z,25.27
2019-02-07T14:35:12.407Z,29.27
2019-02-07T14:37:48.532Z,25.00
2019-02-07T14:40:18.782Z,26.63
2019-02-07T14:42:54.862Z,32.63
2019-02-07T14:45:25.090Z,23.27
2019-02-07T14:47:53.682Z,22.90
2019-02-07T14:50:22.234Z,22.80
2019-02-07T14:52:50.818Z,28.17
2019-02-07T14:55:19.772Z,27.83
2019-02-07T14:57:48.330Z,20.00
2019-02-07T15:00:22.987Z,21.40
2019-02-07T15:02:51.782Z,24.27
2019-02-07T15:05:20.606Z,23.77
2019-02-07T15:07:49.230Z,27.47
2019-02-07T15:10:19.954Z,27.03
2019-02-07T15:12:49.254Z,25.67
2019-02-07T15:15:22.056Z,25.77
2019-02-07T15:17:50.610Z,25.30
2019-02-07T15:20:26.239Z,26.17
2019-02-07T15:22:49.840Z,22.53
2019-02-07T15:25:18.895Z,28.87
2019-02-07T15:27:47.462Z,28.20
2019-02-07T15:30:20.837Z,25.90
2019-02-07T15:32:49.400Z,29.20
2019-02-07T15:35:30.074Z,30.13
2019-02-07T15:37:58.758Z,27.47
2019-02-07T15:40:27.411Z,38.13
2019-02-07T15:42:56.047Z,30.53
2019-02-07T15:45:24.778Z,33.33
2019-02-07T15:47:53.470Z,31.40
2019-02-07T15:50:37.288Z,31.93
2019-02-07T15:52:58.529Z,30.67
2019-02-07T15:55:27.351Z,30.90
2019-02-07T15:57:56.250Z,30.20
2019-02-07T16:00:41.995Z,30.50
2019-02-07T16:03:12.203Z,36.30
2019-02-07T16:05:40.875Z,35.87
2019-02-07T16:08:09.498Z,35.37
2019-02-07T16:10:38.145Z,34.53
2019-02-07T16:13:06.698Z,32.70
2019-02-07T16:15:35.530Z,41.83
2019-02-07T16:18:04.576Z,31.60
2019-02-07T16:20:33.167Z,37.00
2019-02-07T16:23:01.898Z,39.13
2019-02-07T16:25:30.496Z,30.27
2019-02-07T16:27:59.104Z,30.63
2019-02-07T16:30:30.550Z,38.83
2019-02-07T16:32:58.614Z,35.30
2019-02-07T16:35:27.240Z,32.97
2019-02-07T16:37:56.171Z,28.83
2019-02-07T16:40:25.209Z,35.40
2019-02-07T16:42:53.792Z,38.83
2019-02-07T16:45:26.998Z,45.47
2019-02-07T16:47:55.582Z,36.70
2019-02-07T16:50:27.390Z,38.13
2019-02-07T16:52:56.145Z,46.42
2019-02-07T16:55:25.434Z,37.87
2019-02-07T16:57:53.942Z,36.43
2019-02-07T17:00:27.486Z,33.23
2019-02-07T17:02:56.908Z,35.87
2019-02-07T17:05:26.618Z,31.60
2019-02-07T17:07:55.605Z,29.37
2019-02-07T17:10:33.484Z,30.10
2019-02-07T17:13:02.136Z,23.47
2019-02-07T17:15:31.362Z,37.90
2019-02-07T17:17:59.955Z,30.97
2019-02-07T17:20:30.499Z,31.23
2019-02-07T17:22:59.326Z,36.80
2019-02-07T17:25:30.311Z,27.60
2019-02-07T17:27:59.138Z,29.70
2019-02-07T17:30:27.872Z,36.60
2019-02-07T17:32:56.590Z,36.43
2019-02-07T17:35:25.303Z,34.87
2019-02-07T17:37:54.122Z,32.60
2019-02-07T17:40:26.908Z,24.20
2019-02-07T17:42:55.731Z,36.90
2019-02-07T17:45:29.720Z,41.07
2019-02-07T17:47:58.642Z,37.37
2019-02-07T17:50:32.543Z,39.87
2019-02-07T17:53:03.388Z,30.20
2019-02-07T17:55:32.214Z,38.60
2019-02-07T17:58:00.812Z,34.70
2019-02-07T18:00:39.522Z,35.07
2019-02-07T18:03:08.168Z,36.43
2019-02-07T18:05:36.962Z,40.40
2019-02-07T18:08:06.155Z,32.90
2019-02-07T18:10:34.779Z,45.10
2019-02-07T18:13:04.330Z,43.20
2019-02-07T18:15:32.960Z,38.70
2019-02-07T18:18:01.542Z,37.33
2019-02-07T18:20:30.162Z,40.03
2019-02-07T18:22:58.746Z,40.17
2019-02-07T18:25:27.370Z,36.90
2019-02-07T18:27:55.955Z,37.70
2019-02-07T18:30:24.888Z,38.47
2019-02-07T18:32:53.641Z,40.40
2019-02-07T18:35:22.332Z,48.63
2019-02-07T18:37:50.887Z,43.17
2019-02-07T18:40:24.686Z,37.10
2019-02-07T18:42:53.374Z,37.97
2019-02-07T18:45:23.009Z,39.77
2019-02-07T18:47:51.639Z,51.20
2019-02-07T18:50:29.179Z,48.53
2019-02-07T18:52:57.814Z,50.77
2019-02-07T18:55:26.760Z,49.60
2019-02-07T18:57:55.376Z,56.43
2019-02-07T19:00:32.747Z,53.20
2019-02-07T19:03:01.371Z,54.17
2019-02-07T19:05:30.045Z,55.60
2019-02-07T19:07:58.877Z,48.73
2019-02-07T19:10:28.796Z,49.97
2019-02-07T19:12:57.551Z,47.40
2019-02-07T19:15:29.150Z,44.17
2019-02-07T19:17:57.776Z,44.20
2019-02-07T19:20:26.405Z,42.03
2019-02-07T19:22:54.953Z,41.87
2019-02-07T19:25:23.683Z,37.83
2019-02-07T19:27:52.242Z,39.57
2019-02-07T19:30:24.107Z,39.60
2019-02-07T19:32:52.763Z,44.30
2019-02-07T19:35:21.385Z,48.77
2019-02-07T19:37:50.211Z,37.63
2019-02-07T19:40:20.401Z,36.97
2019-02-07T19:42:49.127Z,37.77
2019-02-07T19:45:20.896Z,41.60
2019-02-07T19:47:49.654Z,41.03
2019-02-07T19:50:20.838Z,38.80
2019-02-07T19:52:49.983Z,36.37
2019-02-07T19:55:20.801Z,41.57
2019-02-07T19:57:49.437Z,40.03
2019-02-07T20:00:23.867Z,43.67
2019-02-07T20:02:52.810Z,45.60
2019-02-07T20:05:21.651Z,50.77
2019-02-07T20:07:50.226Z,44.03
2019-02-07T20:10:24.567Z,44.20
2019-02-07T20:12:53.578Z,44.20
2019-02-07T20:15:30.430Z,46.60
2019-02-07T20:18:00.084Z,47.40
2019-02-07T20:20:28.794Z,48.30
2019-02-07T20:22:57.426Z,41.03
2019-02-07T20:25:26.317Z,43.50
2019-02-07T20:27:54.977Z,48.17
2019-02-07T20:30:34.971Z,45.63
2019-02-07T20:33:04.499Z,41.77
2019-02-07T20:35:33.065Z,47.40
2019-02-07T20:38:01.657Z,42.73
2019-02-07T20:40:30.855Z,46.80
2019-02-07T20:42:59.743Z,45.43
2019-02-07T20:45:28.299Z,54.30
2019-02-07T20:47:56.890Z,48.70
2019-02-07T20:50:26.989Z,49.93
2019-02-07T20:52:56.005Z,52.40
2019-02-07T20:55:26.003Z,51.77
2019-02-07T20:57:55.525Z,52.73
2019-02-07T21:00:30.068Z,47.93
2019-02-07T21:02:58.989Z,53.00
2019-02-07T21:05:28.811Z,52.17
2019-02-07T21:07:57.646Z,48.17
2019-02-07T21:10:28.537Z,54.00
2019-02-07T21:12:57.190Z,55.53
2019-02-07T21:15:26.580Z,56.33
2019-02-07T21:17:55.305Z,52.80
2019-02-07T21:20:28.523Z,50.33
2019-02-07T21:22:58.051Z,51.67
2019-02-07T21:25:35.609Z,47.83
2019-02-07T21:28:05.733Z,51.60
2019-02-07T21:30:34.475Z,45.87
2019-02-07T21:33:03.063Z,52.13
2019-02-07T21:35:31.635Z,53.67
2019-02-07T21:38:00.276Z,55.47
2019-02-07T21:40:30.379Z,53.33
2019-02-07T21:43:00.165Z,52.27
2019-02-07T21:45:29.593Z,56.50
2019-02-07T21:47:59.591Z,56.90
2019-02-07T21:50:31.920Z,53.23
2019-02-07T21:53:00.616Z,57.37
2019-02-07T21:55:31.211Z,53.73
2019-02-07T21:58:00.001Z,52.67
2019-02-07T22:00:42.607Z,59.67
2019-02-07T22:03:12.920Z,53.13
2019-02-07T22:05:42.650Z,56.70
2019-02-07T22:08:11.545Z,62.00
2019-02-07T22:10:40.269Z,55.97
2019-02-07T22:13:09.391Z,57.23
2019-02-07T22:15:38.149Z,52.77
2019-02-07T22:18:07.449Z,58.90
2019-02-07T22:20:36.065Z,54.47
2019-02-07T22:23:05.222Z,55.73
2019-02-07T22:25:33.816Z,46.13
2019-02-07T22:28:02.701Z,54.23
2019-02-07T22:30:33.904Z,49.53
2019-02-07T22:33:02.798Z,57.60
2019-02-07T22:35:31.454Z,54.77
2019-02-07T22:38:00.473Z,55.67
2019-02-07T22:40:29.205Z,54.50
2019-02-07T22:42:59.388Z,55.97
2019-02-07T22:45:28.509Z,60.60
2019-02-07T22:47:57.069Z,58.77
2019-02-07T22:50:27.393Z,50.80
2019-02-07T22:52:57.299Z,57.60
2019-02-07T22:55:26.601Z,56.80
2019-02-07T22:57:55.365Z,60.83
2019-02-07T23:00:34.781Z,53.87
2019-02-07T23:03:14.653Z,52.20
2019-02-07T23:05:43.331Z,48.03
2019-02-07T23:08:12.425Z,50.33
2019-02-07T23:10:41.420Z,57.53
2019-02-07T23:13:10.553Z,51.27
2019-02-07T23:15:39.206Z,57.13
2019-02-07T23:18:08.930Z,54.13
2019-02-07T23:20:37.557Z,54.40
2019-02-07T23:23:10.761Z,63.93
2019-02-07T23:25:39.617Z,55.97
2019-02-07T23:28:08.933Z,59.63
2019-02-07T23:30:37.563Z,53.73
2019-02-07T23:33:06.799Z,62.03
2019-02-07T23:35:35.422Z,52.20
2019-02-07T23:38:04.845Z,47.93
2019-02-07T23:40:33.535Z,50.63
2019-02-07T23:43:02.121Z,61.70
2019-02-07T23:45:30.682Z,54.83
2019-02-07T23:47:59.269Z,49.17
2019-02-07T23:50:27.957Z,50.00
2019-02-07T23:52:56.589Z,51.83
2019-02-07T23:55:25.107Z,58.33
2019-02-07T23:57:53.761Z,58.77
